Flight Track Log - Related Links

Times and Time Zones

All times are in EDT time to prevent confusion due to time zone crossing. See the N407BS flight status page for this flight to view local times or setup timezone preferences in your user account.

Time Position Orientation Groundspeed Altitude Reporting Facility
EDT Latitude Longitude Course Direction KTS MPH feet Rate Location/Type
Sun 05:53:24 PM 39.0333 -84.4500 199° South 238 274 3,600  Level Cincinnati TRACON
Sun 05:54:18 PM 38.9833 -84.4667 195° South 225 259 6,500 3,236 Climbing Cincinnati TRACON
Sun 05:56:09 PM 38.8808 -84.5522 213° Southwest 262 302 12,500 3,205 Climbing Indianapolis Center
Sun 05:58:12 PM 38.7717 -84.7183 230° Southwest 311 358 19,000 2,432 Climbing Indianapolis Center
Sun 05:59:14 PM 38.6944 -84.8394 231° Southwest 365 420 20,000 484 Climbing Indianapolis Center
Sun 06:00:16 PM 38.6208 -84.9417 227° Southwest 386 444 20,000  Level Indianapolis Center
Sun 06:01:18 PM 38.5231 -84.9814 198° South 373 429 20,000 -48 Level Indianapolis Center
Sun 06:02:20 PM 38.4250 -85.0039 190° South 359 413 19,900  Descending Indianapolis Center
Sun 06:03:22 PM 38.3331 -85.0456 200° South 349 402 20,000 48 Climbing Indianapolis Center
Sun 06:04:24 PM 38.2614 -85.1575 231° Southwest 369 425 20,000  Level Indianapolis Center
Sun 06:05:26 PM 38.2244 -85.2639 246° West 387 445 20,000  Level Indianapolis Center
Sun 06:06:28 PM 38.1653 -85.4172 244° Southwest 397 457 20,000  Level Indianapolis Center
Sun 06:07:30 PM 38.1142 -85.5475 244° Southwest 407 468 20,000  Level Indianapolis Center
Sun 06:08:32 PM 38.0767 -85.6875 251° West 420 483 20,000 -48 Level Indianapolis Center
Sun 06:09:34 PM 38.0458 -85.8303 255° West 418 481 19,900 -629 Descending Indianapolis Center
Sun 06:10:36 PM 38.0156 -85.9683 254° West 409 471 18,700 -1,677 Descending Indianapolis Center
Sun 06:12:00 PM 37.9748 -86.1137 254° West  Level FlightAware Approximate
Sun 06:12:40 PM 37.9564 -86.2292 254° West 377 434 14,700  Level Indianapolis Center
Sun 06:13:42 PM 37.9294 -86.3431 253° West 343 395 13,000 -1,597 Descending Indianapolis Center
Sun 06:14:44 PM 37.8994 -86.4783 254° West 331 381 11,400 -1,016 Descending Indianapolis Center
Sun 06:15:46 PM 37.8744 -86.5892 254° West 327 376 10,900 -677 Descending Indianapolis Center
Sun 06:16:48 PM 37.8806 -86.6956 274° West 324 373 10,000 -1,403 Descending Indianapolis Center
Sun 06:17:50 PM 37.9294 -86.7781 307° West 293 337 8,000 -1,790 Descending Indianapolis Center
Sun 06:18:52 PM 37.9456 -86.8728 282° West 286 329 6,300 -1,597 Descending Indianapolis Center
Sun 06:19:54 PM 37.9422 -86.9672 267° West 272 313 4,700 -1,500 Descending Indianapolis Center
Sun 06:20:56 PM 37.9394 -87.0569 268° West 263 303 3,200 -823 Descending Indianapolis Center
Sun 06:21:58 PM 37.9375 -87.1336 268° West 239 275 3,000 -387 Descending Indianapolis Center
Sun 06:23:00 PM 37.9019 -87.1836 228° Southwest 217 250 2,400 -581 Descending Indianapolis Center
Sun 06:24:02 PM 37.8425 -87.1844 181° South 192 221 1,800 -629 Descending Indianapolis Center
Sun 06:25:04 PM 37.8003 -87.1728 168° South 170 196 1,100 -532 Descending Indianapolis Center
Sun 06:26:06 PM 37.7658 -87.1667 172° South 147 169 700 -387 Descending Indianapolis Center

Login

Don't have an account? Register now (free) for customized features, flight alerts, and more!